createdAt,value
2023-02-19T00:01:52.503Z,95854.38
2023-02-19T00:04:24.797Z,95857.47
2023-02-19T00:06:53.205Z,95858.69
2023-02-19T00:09:21.828Z,95848.72
2023-02-19T00:11:50.097Z,95840.28
2023-02-19T00:14:21.432Z,95837.00
2023-02-19T00:16:50.094Z,95857.38
2023-02-19T00:19:20.480Z,95842.84
2023-02-19T00:21:52.230Z,95849.94
2023-02-19T00:24:21.376Z,95842.13
2023-02-19T00:26:49.652Z,95844.34
2023-02-19T00:29:20.647Z,95831.72
2023-02-19T00:31:49.197Z,95836.06
2023-02-19T00:34:17.091Z,95836.00
2023-02-19T00:36:45.590Z,95837.31
2023-02-19T00:39:16.219Z,95826.50
2023-02-19T00:41:46.660Z,95825.47
2023-02-19T00:44:15.138Z,95821.44
2023-02-19T00:46:46.280Z,95826.00
2023-02-19T00:49:18.384Z,95816.13
2023-02-19T00:51:47.598Z,95820.19
2023-02-19T00:54:15.542Z,95815.13
2023-02-19T00:56:43.925Z,95817.97
2023-02-19T00:59:11.739Z,95806.09
2023-02-19T01:01:40.304Z,95809.94
2023-02-19T01:04:08.464Z,95806.06
2023-02-19T01:06:37.301Z,95802.56
2023-02-19T01:09:07.421Z,95811.56
2023-02-19T01:11:36.142Z,95803.88
2023-02-19T01:14:05.187Z,95793.03
2023-02-19T01:16:33.357Z,95806.50
2023-02-19T01:19:01.327Z,95805.13
2023-02-19T01:21:31.297Z,95796.59
2023-02-19T01:23:59.996Z,95795.78
2023-02-19T01:26:31.670Z,95785.94
2023-02-19T01:29:01.019Z,95795.41
2023-02-19T01:31:30.460Z,95776.59
2023-02-19T01:34:00.766Z,95789.50
2023-02-19T01:36:30.463Z,95793.44
2023-02-19T01:39:01.064Z,95793.03
2023-02-19T01:41:29.492Z,95785.56
2023-02-19T01:44:01.931Z,95792.00
2023-02-19T01:46:35.569Z,95776.38
2023-02-19T01:49:11.080Z,95789.66
2023-02-19T01:52:01.514Z,95783.88
2023-02-19T01:54:32.906Z,95787.66
2023-02-19T01:57:04.876Z,95783.28
2023-02-19T01:59:34.197Z,95782.19
2023-02-19T02:02:02.642Z,95774.38
2023-02-19T02:04:34.013Z,95776.63
2023-02-19T02:07:24.614Z,95793.44
2023-02-19T02:10:12.696Z,95792.69
2023-02-19T02:12:40.925Z,95778.34
2023-02-19T02:15:09.599Z,95777.66
2023-02-19T02:18:04.000Z,95767.16
2023-02-19T02:20:40.836Z,95784.19
2023-02-19T02:23:50.365Z,95786.75
2023-02-19T02:26:55.871Z,95783.03
2023-02-19T02:29:53.245Z,95785.78
2023-02-19T02:32:27.316Z,95783.94
2023-02-19T02:35:05.549Z,95774.16
2023-02-19T02:37:37.638Z,95775.13
2023-02-19T02:40:09.808Z,95777.34
2023-02-19T02:42:40.810Z,95769.28
2023-02-19T02:45:36.580Z,95777.56
2023-02-19T02:48:25.179Z,95776.94
2023-02-19T02:51:10.660Z,95768.84
2023-02-19T02:54:39.714Z,95768.25
2023-02-19T02:57:15.182Z,95777.34
2023-02-19T02:59:53.939Z,95754.03
2023-02-19T03:02:31.219Z,95769.25
2023-02-19T03:05:34.309Z,95759.75
2023-02-19T03:08:12.196Z,95757.28
2023-02-19T03:10:51.472Z,95760.94
2023-02-19T03:13:46.528Z,95755.78
2023-02-19T03:16:42.952Z,95758.81
2023-02-19T03:19:22.196Z,95767.97
2023-02-19T03:21:57.668Z,95761.03
2023-02-19T03:24:52.493Z,95768.13
2023-02-19T03:27:22.295Z,95773.91
2023-02-19T03:29:59.226Z,95736.53
2023-02-19T03:32:36.761Z,95753.06
2023-02-19T03:35:27.652Z,95742.69
2023-02-19T03:38:23.019Z,95734.25
2023-02-19T03:41:07.868Z,95731.84
2023-02-19T03:44:08.375Z,95751.72
2023-02-19T03:47:05.459Z,95752.16
2023-02-19T03:49:50.152Z,95751.25
2023-02-19T03:52:42.236Z,95747.38
2023-02-19T03:55:17.382Z,95745.28
2023-02-19T03:57:59.036Z,95741.59
2023-02-19T04:00:45.306Z,95742.44
2023-02-19T04:03:19.539Z,95740.41
2023-02-19T04:05:58.875Z,95735.09
2023-02-19T04:08:28.469Z,95725.22
2023-02-19T04:11:03.195Z,95739.06
2023-02-19T04:13:48.979Z,95725.84
2023-02-19T04:16:22.470Z,95744.06
2023-02-19T04:18:55.452Z,95739.03
2023-02-19T04:21:24.240Z,95743.94
2023-02-19T04:23:52.717Z,95743.34
2023-02-19T04:26:23.366Z,95732.97
2023-02-19T04:28:51.429Z,95745.09
2023-02-19T04:31:19.819Z,95744.34
2023-02-19T04:33:48.080Z,95733.06
2023-02-19T04:36:15.835Z,95747.53
2023-02-19T04:38:44.128Z,95752.47
2023-02-19T04:41:12.419Z,95752.41
2023-02-19T04:43:40.736Z,95758.47
2023-02-19T04:46:08.831Z,95750.69
2023-02-19T04:48:37.080Z,95756.91
2023-02-19T04:51:08.573Z,95748.34
2023-02-19T04:53:37.754Z,95752.13
2023-02-19T04:56:11.698Z,95750.34
2023-02-19T04:58:41.571Z,95740.31
2023-02-19T05:01:10.951Z,95747.09
2023-02-19T05:03:39.543Z,95733.66
2023-02-19T05:06:11.019Z,95739.44
2023-02-19T05:08:40.142Z,95726.41
2023-02-19T05:11:11.134Z,95747.44
2023-02-19T05:13:40.201Z,95748.84
2023-02-19T05:16:15.070Z,95739.47
2023-02-19T05:18:45.374Z,95737.09
2023-02-19T05:21:15.904Z,95748.19
2023-02-19T05:23:44.741Z,95742.22
2023-02-19T05:26:19.423Z,95740.56
2023-02-19T05:28:50.152Z,95745.81
2023-02-19T05:31:18.986Z,95735.38
2023-02-19T05:33:51.470Z,95744.34
2023-02-19T05:36:21.801Z,95745.47
2023-02-19T05:38:57.768Z,95738.47
2023-02-19T05:41:28.513Z,95735.78
2023-02-19T05:43:58.046Z,95732.50
2023-02-19T05:46:29.971Z,95736.69
2023-02-19T05:49:01.426Z,95732.97
2023-02-19T05:51:30.154Z,95723.69
2023-02-19T05:53:58.422Z,95712.06
2023-02-19T05:56:40.328Z,95713.53
2023-02-19T05:59:18.339Z,95719.16
2023-02-19T06:01:46.510Z,95724.53
2023-02-19T06:04:15.812Z,95713.34
2023-02-19T06:06:43.769Z,95713.19
2023-02-19T06:09:12.450Z,95714.09
2023-02-19T06:11:41.088Z,95707.84
2023-02-19T06:14:09.260Z,95708.88
2023-02-19T06:16:37.412Z,95732.66
2023-02-19T06:19:05.775Z,95715.75
2023-02-19T06:21:34.056Z,95713.81
2023-02-19T06:24:07.022Z,95718.22
2023-02-19T06:26:35.125Z,95705.44
2023-02-19T06:29:03.845Z,95708.25
2023-02-19T06:31:32.275Z,95704.97
2023-02-19T06:34:04.674Z,95708.16
2023-02-19T06:36:32.720Z,95700.97
2023-02-19T06:39:02.297Z,95698.97
2023-02-19T06:41:30.149Z,95701.94
2023-02-19T06:43:59.200Z,95693.13
2023-02-19T06:46:27.124Z,95691.47
2023-02-19T06:48:55.369Z,95688.31
2023-02-19T06:51:27.478Z,95681.22
2023-02-19T06:53:56.273Z,95686.91
2023-02-19T06:56:28.354Z,95676.56
2023-02-19T06:59:01.641Z,95673.94
2023-02-19T07:01:49.475Z,95644.75
2023-02-19T07:04:18.063Z,95658.09
2023-02-19T07:06:45.825Z,95679.56
2023-02-19T07:09:14.066Z,95680.53
2023-02-19T07:11:42.730Z,95663.66
2023-02-19T07:14:16.030Z,95675.94
2023-02-19T07:16:44.706Z,95672.72
2023-02-19T07:19:13.247Z,95680.78
2023-02-19T07:21:42.658Z,95680.66
2023-02-19T07:24:10.885Z,95687.03
2023-02-19T07:26:39.059Z,95701.13
2023-02-19T07:29:07.944Z,95701.53
2023-02-19T07:31:36.415Z,95701.41
2023-02-19T07:34:05.094Z,95683.81
2023-02-19T07:36:32.928Z,95691.59
2023-02-19T07:39:01.043Z,95684.00
2023-02-19T07:41:28.959Z,95685.53
2023-02-19T07:43:59.358Z,95676.69
2023-02-19T07:46:27.748Z,95673.69
2023-02-19T07:48:56.173Z,95687.31
2023-02-19T07:51:24.134Z,95704.66
2023-02-19T07:53:52.403Z,95688.63
2023-02-19T07:56:21.174Z,95676.94
2023-02-19T07:58:49.673Z,95683.78
2023-02-19T08:01:40.221Z,95694.91
2023-02-19T08:04:08.846Z,95681.91
2023-02-19T08:06:36.586Z,95674.91
2023-02-19T08:09:06.112Z,95665.41
2023-02-19T08:11:52.714Z,95674.00
2023-02-19T08:14:25.082Z,95673.03
2023-02-19T08:16:53.796Z,95673.69
2023-02-19T08:19:22.659Z,95682.31
2023-02-19T08:21:50.982Z,95675.03
2023-02-19T08:24:19.313Z,95663.31
2023-02-19T08:26:47.207Z,95659.75
2023-02-19T08:29:15.810Z,95672.69
2023-02-19T08:31:43.762Z,95676.97
2023-02-19T08:34:12.102Z,95674.38
2023-02-19T08:36:40.287Z,95671.25
2023-02-19T08:39:08.639Z,95657.53
2023-02-19T08:41:36.658Z,95655.09
2023-02-19T08:44:04.940Z,95648.63
2023-02-19T08:46:34.412Z,95655.88
2023-02-19T08:49:02.746Z,95649.00
2023-02-19T08:51:30.897Z,95659.03
2023-02-19T08:53:59.118Z,95658.88
2023-02-19T08:56:26.883Z,95653.56
2023-02-19T08:58:55.119Z,95651.31
2023-02-19T09:01:24.026Z,95641.28
2023-02-19T09:03:53.528Z,95655.97
2023-02-19T09:06:21.515Z,95638.47
2023-02-19T09:08:50.021Z,95635.97
2023-02-19T09:11:18.390Z,95632.63
2023-02-19T09:13:46.706Z,95638.47
2023-02-19T09:16:14.546Z,95633.63
2023-02-19T09:18:43.455Z,95654.47
2023-02-19T09:21:11.856Z,95618.44
2023-02-19T09:23:40.725Z,95628.84
2023-02-19T09:26:11.691Z,95624.97
2023-02-19T09:28:42.165Z,95621.78
2023-02-19T09:31:13.127Z,95627.56
2023-02-19T09:33:46.057Z,95615.56
2023-02-19T09:36:16.120Z,95614.13
2023-02-19T09:38:44.976Z,95626.31
2023-02-19T09:41:31.006Z,95604.09
2023-02-19T09:44:02.103Z,95618.69
2023-02-19T09:46:39.404Z,95599.41
2023-02-19T09:49:14.230Z,95597.56
2023-02-19T09:51:47.600Z,95591.75
2023-02-19T09:54:23.168Z,95603.19
2023-02-19T09:56:53.527Z,95587.28
2023-02-19T09:59:26.354Z,95588.13
2023-02-19T10:02:03.244Z,95575.75
2023-02-19T10:04:31.934Z,95577.28
2023-02-19T10:07:03.790Z,95569.50
2023-02-19T10:09:35.298Z,95578.72
2023-02-19T10:12:03.420Z,95571.81
2023-02-19T10:14:42.574Z,95571.47
2023-02-19T10:17:21.223Z,95582.63
2023-02-19T10:19:49.928Z,95572.91
2023-02-19T10:22:19.181Z,95567.97
2023-02-19T10:24:52.374Z,95553.03
2023-02-19T10:27:20.887Z,95554.44
2023-02-19T10:29:51.468Z,95550.66
2023-02-19T10:32:30.040Z,95547.97
2023-02-19T10:35:12.467Z,95559.88
2023-02-19T10:37:49.057Z,95557.44
2023-02-19T10:40:20.042Z,95558.53
2023-02-19T10:42:50.754Z,95538.63
2023-02-19T10:45:34.731Z,95542.25
2023-02-19T10:48:03.841Z,95557.69
2023-02-19T10:50:39.602Z,95541.22
2023-02-19T10:53:25.337Z,95538.63
2023-02-19T10:56:13.217Z,95550.72
2023-02-19T10:58:45.209Z,95570.16
2023-02-19T11:01:23.680Z,95554.16
2023-02-19T11:03:53.863Z,95556.88
2023-02-19T11:06:27.166Z,95559.66
2023-02-19T11:09:01.418Z,95563.63
2023-02-19T11:11:36.884Z,95565.41
2023-02-19T11:14:17.245Z,95565.16
2023-02-19T11:17:00.303Z,95569.97
2023-02-19T11:19:49.034Z,95555.19
2023-02-19T11:22:42.213Z,95562.41
2023-02-19T11:25:17.336Z,95544.91
2023-02-19T11:28:02.890Z,95547.44
2023-02-19T11:30:33.252Z,95552.75
2023-02-19T11:33:20.065Z,95549.50
2023-02-19T11:35:49.923Z,95560.94
2023-02-19T11:38:20.708Z,95569.53
2023-02-19T11:41:24.087Z,95556.91
2023-02-19T11:44:01.473Z,95561.50
2023-02-19T11:46:32.510Z,95576.91
2023-02-19T11:49:09.345Z,95560.19
2023-02-19T11:51:52.721Z,95558.47
2023-02-19T11:54:32.919Z,95560.06
2023-02-19T11:57:26.856Z,95550.53
2023-02-19T12:00:26.139Z,95551.63
2023-02-19T12:03:12.604Z,95555.84
2023-02-19T12:05:59.178Z,95561.81
2023-02-19T12:09:15.140Z,95569.97
2023-02-19T12:12:01.575Z,95573.03
2023-02-19T12:15:08.330Z,95560.66
2023-02-19T12:17:58.636Z,95569.56
2023-02-19T12:20:43.020Z,95570.56
2023-02-19T12:23:44.753Z,95585.28
2023-02-19T12:26:29.741Z,95583.00
2023-02-19T12:29:18.948Z,95585.03
2023-02-19T12:32:03.156Z,95586.78
2023-02-19T12:34:40.539Z,95592.50
2023-02-19T12:37:28.198Z,95595.81
2023-02-19T12:40:04.008Z,95599.16
2023-02-19T12:42:51.263Z,95593.63
2023-02-19T12:45:34.019Z,95595.81
2023-02-19T12:48:20.153Z,95588.09
2023-02-19T12:50:53.652Z,95594.41
2023-02-19T12:53:33.803Z,95598.38
2023-02-19T12:56:10.932Z,95580.41
2023-02-19T12:58:48.614Z,95589.41
2023-02-19T13:01:29.218Z,95584.00
2023-02-19T13:04:19.070Z,95598.94
2023-02-19T13:06:58.094Z,95582.91
2023-02-19T13:09:31.736Z,95577.69
2023-02-19T13:12:07.795Z,95586.03
2023-02-19T13:14:49.696Z,95585.03
2023-02-19T13:17:32.362Z,95593.53
2023-02-19T13:20:27.619Z,95595.78
2023-02-19T13:23:43.359Z,95603.13
2023-02-19T13:26:38.432Z,95591.97
2023-02-19T13:29:25.040Z,95602.00
2023-02-19T13:32:23.610Z,95599.53
2023-02-19T13:35:13.139Z,95596.97
2023-02-19T13:37:41.693Z,95598.34
2023-02-19T13:40:28.659Z,95607.25
2023-02-19T13:42:59.599Z,95599.97
2023-02-19T13:45:37.422Z,95601.81
2023-02-19T13:48:31.885Z,95607.44
2023-02-19T13:51:21.953Z,95616.00
2023-02-19T13:53:59.896Z,95610.22
2023-02-19T13:56:31.681Z,95608.91
2023-02-19T13:59:13.690Z,95617.91
2023-02-19T14:01:54.066Z,95615.81
2023-02-19T14:04:41.723Z,95614.03
2023-02-19T14:07:10.355Z,95610.22
2023-02-19T14:09:39.513Z,95614.44
2023-02-19T14:12:10.694Z,95610.81
2023-02-19T14:14:49.779Z,95614.31
2023-02-19T14:17:36.943Z,95620.28
2023-02-19T14:20:33.399Z,95635.53
2023-02-19T14:23:15.643Z,95638.63
2023-02-19T14:25:52.342Z,95647.41
2023-02-19T14:28:30.371Z,95637.78
2023-02-19T14:31:01.308Z,95645.72
2023-02-19T14:33:35.217Z,95635.00
2023-02-19T14:36:12.418Z,95639.78
2023-02-19T14:39:31.543Z,95644.06
2023-02-19T14:42:02.410Z,95647.59
2023-02-19T14:44:35.793Z,95639.06
2023-02-19T14:47:05.916Z,95618.44
2023-02-19T14:49:49.861Z,95639.97
2023-02-19T14:52:51.908Z,95645.34
2023-02-19T14:55:38.215Z,95642.81
2023-02-19T14:58:11.157Z,95651.41
2023-02-19T15:00:41.774Z,95648.97
2023-02-19T15:03:30.479Z,95658.25
2023-02-19T15:06:07.812Z,95653.75
2023-02-19T15:08:40.188Z,95653.59
2023-02-19T15:11:12.837Z,95643.31
2023-02-19T15:13:45.916Z,95652.91
2023-02-19T15:16:20.193Z,95661.56
2023-02-19T15:18:50.390Z,95657.31
2023-02-19T15:21:26.769Z,95662.72
2023-02-19T15:24:00.530Z,95653.84
2023-02-19T15:26:43.685Z,95662.78
2023-02-19T15:29:14.290Z,95657.09
2023-02-19T15:31:47.603Z,95670.78
2023-02-19T15:34:21.869Z,95677.22
2023-02-19T15:36:53.556Z,95677.09
2023-02-19T15:39:44.049Z,95657.91
2023-02-19T15:42:20.229Z,95659.28
2023-02-19T15:45:17.162Z,95693.06
2023-02-19T15:47:59.327Z,95678.16
2023-02-19T15:50:31.230Z,95687.34
2023-02-19T15:53:05.192Z,95700.94
2023-02-19T15:55:48.299Z,95697.34
2023-02-19T15:58:29.157Z,95699.66
2023-02-19T16:01:08.586Z,95677.00
2023-02-19T16:03:37.583Z,95684.88
2023-02-19T16:06:16.999Z,95691.31
2023-02-19T16:08:47.253Z,95715.84
2023-02-19T16:11:24.311Z,95712.09
2023-02-19T16:13:52.908Z,95711.44
2023-02-19T16:16:23.627Z,95715.91
2023-02-19T16:18:53.341Z,95733.09
2023-02-19T16:21:25.033Z,95724.72
2023-02-19T16:24:16.070Z,95717.97
2023-02-19T16:26:45.682Z,95715.16
2023-02-19T16:29:33.249Z,95732.13
2023-02-19T16:32:04.062Z,95739.47
2023-02-19T16:34:50.940Z,95739.19
2023-02-19T16:37:40.804Z,95718.09
2023-02-19T16:40:43.758Z,95718.00
2023-02-19T16:43:14.685Z,95719.41
2023-02-19T16:45:47.806Z,95707.41
2023-02-19T16:48:16.250Z,95713.63
2023-02-19T16:50:46.495Z,95704.91
2023-02-19T16:53:25.331Z,95716.13
2023-02-19T16:55:53.626Z,95710.25
2023-02-19T16:58:21.711Z,95704.22
2023-02-19T17:00:50.109Z,95713.19
2023-02-19T17:03:21.731Z,95702.84
2023-02-19T17:05:51.282Z,95695.28
2023-02-19T17:08:35.398Z,95681.31
2023-02-19T17:11:06.720Z,95665.19
2023-02-19T17:13:34.631Z,95678.72
2023-02-19T17:16:02.934Z,95676.38
2023-02-19T17:18:32.050Z,95673.41
2023-02-19T17:21:10.290Z,95676.38
2023-02-19T17:23:38.519Z,95666.66
2023-02-19T17:26:06.709Z,95679.66
2023-02-19T17:28:35.336Z,95681.31
2023-02-19T17:31:03.675Z,95685.25
2023-02-19T17:33:31.489Z,95678.09
2023-02-19T17:36:00.324Z,95702.25
2023-02-19T17:38:29.279Z,95716.44
2023-02-19T17:40:57.854Z,95738.28
2023-02-19T17:43:25.985Z,95722.31
2023-02-19T17:45:54.496Z,95735.06
2023-02-19T17:48:22.327Z,95737.78
2023-02-19T17:50:52.448Z,95720.41
2023-02-19T17:53:20.489Z,95742.28
2023-02-19T17:55:48.728Z,95744.81
2023-02-19T17:58:16.586Z,95769.88
2023-02-19T18:00:44.841Z,95769.88
2023-02-19T18:03:12.731Z,95767.03
2023-02-19T18:05:40.999Z,95762.88
2023-02-19T18:08:09.289Z,95755.66
2023-02-19T18:10:38.448Z,95754.88
2023-02-19T18:13:06.395Z,95741.16
2023-02-19T18:15:35.130Z,95749.25
2023-02-19T18:18:05.204Z,95741.41
2023-02-19T18:20:33.447Z,95751.41
2023-02-19T18:23:01.630Z,95755.38
2023-02-19T18:25:29.842Z,95758.66
2023-02-19T18:27:59.589Z,95756.00
2023-02-19T18:30:28.953Z,95754.34
2023-02-19T18:32:57.758Z,95738.22
2023-02-19T18:35:26.110Z,95747.28
2023-02-19T18:37:55.237Z,95746.78
2023-02-19T18:40:26.204Z,95744.34
2023-02-19T18:42:54.529Z,95742.03
2023-02-19T18:45:22.970Z,95739.69
2023-02-19T18:47:51.204Z,95730.44
2023-02-19T18:50:21.414Z,95753.06
2023-02-19T18:52:49.624Z,95734.28
2023-02-19T18:55:18.413Z,95752.41
2023-02-19T18:57:47.584Z,95750.06
2023-02-19T19:00:23.271Z,95748.75
2023-02-19T19:02:51.657Z,95754.78
2023-02-19T19:05:23.353Z,95749.63
2023-02-19T19:07:54.715Z,95756.09
2023-02-19T19:10:24.508Z,95750.91
2023-02-19T19:12:54.549Z,95754.69
2023-02-19T19:15:25.341Z,95735.16
2023-02-19T19:17:53.511Z,95744.44
2023-02-19T19:20:24.177Z,95728.84
2023-02-19T19:22:53.846Z,95737.28
2023-02-19T19:25:35.292Z,95736.19
2023-02-19T19:28:08.861Z,95745.75
2023-02-19T19:30:43.922Z,95744.63
2023-02-19T19:33:17.764Z,95735.56
2023-02-19T19:35:48.291Z,95745.81
2023-02-19T19:38:17.985Z,95745.97
2023-02-19T19:40:51.142Z,95748.75
2023-02-19T19:43:21.498Z,95756.69
2023-02-19T19:45:51.066Z,95758.34
2023-02-19T19:48:19.288Z,95754.19
2023-02-19T19:50:48.386Z,95758.84
2023-02-19T19:53:16.820Z,95759.16
2023-02-19T19:55:45.380Z,95756.75
2023-02-19T19:58:14.706Z,95755.72
2023-02-19T20:00:45.299Z,95750.19
2023-02-19T20:03:14.727Z,95724.84
2023-02-19T20:05:43.512Z,95750.31
2023-02-19T20:08:14.177Z,95754.03
2023-02-19T20:10:45.410Z,95737.38
2023-02-19T20:13:26.470Z,95745.97
2023-02-19T20:15:57.213Z,95738.13
2023-02-19T20:18:27.765Z,95731.31
2023-02-19T20:20:58.900Z,95725.63
2023-02-19T20:23:28.344Z,95737.94
2023-02-19T20:25:58.768Z,95726.31
2023-02-19T20:28:26.795Z,95741.13
2023-02-19T20:30:59.621Z,95737.25
2023-02-19T20:33:27.599Z,95720.66
2023-02-19T20:35:57.252Z,95735.63
2023-02-19T20:38:25.620Z,95732.44
2023-02-19T20:40:53.991Z,95726.59
2023-02-19T20:43:21.848Z,95734.34
2023-02-19T20:45:50.276Z,95730.00
2023-02-19T20:48:18.745Z,95744.22
2023-02-19T20:50:47.137Z,95730.91
2023-02-19T20:53:15.464Z,95735.56
2023-02-19T20:55:43.647Z,95737.53
2023-02-19T20:58:11.389Z,95734.34
2023-02-19T21:00:39.714Z,95742.94
2023-02-19T21:03:09.396Z,95738.81
2023-02-19T21:05:38.652Z,95731.75
2023-02-19T21:08:07.881Z,95755.84
2023-02-19T21:10:35.890Z,95746.59
2023-02-19T21:13:04.357Z,95742.41
2023-02-19T21:15:32.802Z,95745.00
2023-02-19T21:18:01.027Z,95736.19
2023-02-19T21:20:29.074Z,95750.88
2023-02-19T21:22:57.478Z,95749.13
2023-02-19T21:25:25.499Z,95737.94
2023-02-19T21:27:54.188Z,95739.84
2023-02-19T21:30:22.207Z,95694.03
2023-02-19T21:32:50.524Z,95711.13
2023-02-19T21:35:18.806Z,95722.06
2023-02-19T21:37:47.390Z,95718.63
2023-02-19T21:40:15.293Z,95704.03
2023-02-19T21:42:44.864Z,95704.75
2023-02-19T21:45:13.232Z,95709.41
2023-02-19T21:47:43.284Z,95696.47
2023-02-19T21:50:11.368Z,95696.44
2023-02-19T21:52:40.286Z,95720.53
2023-02-19T21:55:08.338Z,95728.16
2023-02-19T21:57:36.596Z,95716.34
2023-02-19T22:00:07.112Z,95742.00
2023-02-19T22:02:35.610Z,95743.38
2023-02-19T22:05:03.996Z,95729.09
2023-02-19T22:07:32.277Z,95744.16
2023-02-19T22:10:00.217Z,95733.44
2023-02-19T22:12:28.355Z,95726.38
2023-02-19T22:14:56.189Z,95719.63
2023-02-19T22:17:24.601Z,95729.13
2023-02-19T22:19:52.695Z,95729.25
2023-02-19T22:22:20.873Z,95726.38
2023-02-19T22:24:49.022Z,95727.16
2023-02-19T22:27:17.234Z,95723.69
2023-02-19T22:29:45.414Z,95725.53
2023-02-19T22:32:13.896Z,95734.25
2023-02-19T22:34:42.238Z,95723.50
2023-02-19T22:37:11.026Z,95717.09
2023-02-19T22:39:39.129Z,95701.38
2023-02-19T22:42:07.287Z,95687.94
2023-02-19T22:44:35.734Z,95701.19
2023-02-19T22:47:03.906Z,95707.53
2023-02-19T22:49:31.692Z,95703.09
2023-02-19T22:52:09.050Z,95722.06
2023-02-19T22:54:37.561Z,95735.34
2023-02-19T22:57:06.008Z,95724.13
2023-02-19T22:59:33.863Z,95747.44
2023-02-19T23:02:02.040Z,95739.03
2023-02-19T23:04:30.041Z,95734.78
2023-02-19T23:06:59.548Z,95749.50
2023-02-19T23:09:29.529Z,95746.88
2023-02-19T23:12:07.378Z,95732.53
2023-02-19T23:14:35.931Z,95722.00
2023-02-19T23:17:04.282Z,95714.31
2023-02-19T23:19:33.139Z,95708.03
2023-02-19T23:22:01.539Z,95713.09
2023-02-19T23:24:29.335Z,95710.44
2023-02-19T23:26:58.020Z,95708.47
2023-02-19T23:29:27.169Z,95715.25
2023-02-19T23:31:55.726Z,95719.03
2023-02-19T23:34:24.725Z,95715.75
2023-02-19T23:36:54.796Z,95720.34
2023-02-19T23:39:22.990Z,95712.94
2023-02-19T23:41:54.357Z,95696.03
2023-02-19T23:44:24.079Z,95688.44
2023-02-19T23:46:52.827Z,95691.06
2023-02-19T23:49:21.016Z,95690.72
2023-02-19T23:51:49.914Z,95699.31
2023-02-19T23:54:17.853Z,95708.47
2023-02-19T23:56:46.062Z,95677.72
2023-02-19T23:59:14.096Z,95670.78
